createdAt,value
2017-05-13T00:00:37.514Z,14.1
2017-05-13T00:01:38.811Z,14.17
2017-05-13T00:02:40.080Z,14.16
2017-05-13T00:03:41.354Z,14.17
2017-05-13T00:04:42.628Z,14.1
2017-05-13T00:05:43.926Z,14.12
2017-05-13T00:06:45.198Z,14.14
2017-05-13T00:07:46.457Z,14.17
2017-05-13T00:08:47.799Z,14.21
2017-05-13T00:09:49.083Z,14.16
2017-05-13T00:10:50.353Z,14.17
2017-05-13T00:11:51.578Z,14.14
2017-05-13T00:12:52.832Z,14.13
2017-05-13T00:13:54.211Z,14.12
2017-05-13T00:14:55.454Z,14.12
2017-05-13T00:15:56.749Z,14.13
2017-05-13T00:16:58.008Z,14.16
2017-05-13T00:17:59.549Z,14.17
2017-05-13T00:19:00.814Z,14.19
2017-05-13T00:20:02.057Z,14.28
2017-05-13T00:21:03.332Z,14.28
2017-05-13T00:22:04.591Z,14.32
2017-05-13T00:23:05.838Z,14.29
2017-05-13T00:24:07.179Z,14.43
2017-05-13T00:25:08.489Z,14.39
2017-05-13T00:26:09.746Z,14.39
2017-05-13T00:27:11.019Z,14.43
2017-05-13T00:28:12.282Z,14.44
2017-05-13T00:29:13.545Z,14.43
2017-05-13T00:30:14.835Z,14.47
2017-05-13T00:31:16.133Z,14.5
2017-05-13T00:32:17.410Z,14.53
2017-05-13T00:33:18.666Z,14.52
2017-05-13T00:34:19.940Z,14.53
2017-05-13T00:35:21.191Z,14.56
2017-05-13T00:36:22.458Z,14.54
2017-05-13T00:37:23.747Z,14.6
2017-05-13T00:38:25.150Z,14.54
2017-05-13T00:39:26.501Z,14.62
2017-05-13T00:40:27.769Z,14.64
2017-05-13T00:41:28.999Z,14.61
2017-05-13T00:42:30.282Z,14.5
2017-05-13T00:43:31.569Z,14.57
2017-05-13T00:44:32.803Z,14.62
2017-05-13T00:45:34.055Z,14.47
2017-05-13T00:46:35.312Z,14.49
2017-05-13T00:47:36.579Z,14.47
2017-05-13T00:48:37.960Z,14.44
2017-05-13T00:49:39.310Z,14.44
2017-05-13T00:50:40.643Z,14.46
2017-05-13T00:51:41.918Z,14.5
2017-05-13T00:52:43.176Z,14.5
2017-05-13T00:53:44.501Z,14.53
2017-05-13T00:54:45.742Z,14.39
2017-05-13T00:55:47.040Z,14.54
2017-05-13T00:56:48.326Z,14.54
2017-05-13T00:57:49.509Z,14.49
2017-05-13T00:58:50.770Z,14.47
2017-05-13T00:59:52.053Z,14.46
2017-05-13T01:00:53.396Z,14.53
2017-05-13T01:01:54.615Z,14.54
2017-05-13T01:02:55.908Z,14.54
2017-05-13T01:03:57.180Z,14.53
2017-05-13T01:04:58.439Z,14.47
2017-05-13T01:05:59.701Z,14.52
2017-05-13T01:07:00.968Z,14.52
2017-05-13T01:08:02.299Z,14.47
2017-05-13T01:09:03.557Z,14.46
2017-05-13T01:10:04.821Z,14.52
2017-05-13T01:11:06.089Z,14.47
2017-05-13T01:12:07.357Z,14.46
2017-05-13T01:13:08.691Z,14.49
2017-05-13T01:14:10.090Z,14.49
2017-05-13T01:15:11.355Z,14.49
2017-05-13T01:16:12.600Z,14.43
2017-05-13T01:17:13.941Z,14.44
2017-05-13T01:18:15.240Z,14.43
2017-05-13T01:19:16.491Z,14.43
2017-05-13T01:20:17.747Z,14.44
2017-05-13T01:21:18.990Z,14.47
2017-05-13T01:22:20.280Z,14.35
2017-05-13T01:23:21.573Z,14.49
2017-05-13T01:24:22.828Z,14.52
2017-05-13T01:25:24.111Z,14.44
2017-05-13T01:26:25.364Z,14.46
2017-05-13T01:27:26.623Z,14.5
2017-05-13T01:28:27.893Z,14.5
2017-05-13T01:29:29.271Z,14.46
2017-05-13T01:30:30.575Z,14.31
2017-05-13T01:31:31.909Z,14.35
2017-05-13T01:32:33.139Z,14.39
2017-05-13T01:33:34.409Z,14.28
2017-05-13T01:34:35.656Z,14.34
2017-05-13T01:35:36.985Z,14.32
2017-05-13T01:36:38.366Z,14.35
2017-05-13T01:37:39.645Z,14.39
2017-05-13T01:38:40.938Z,14.31
2017-05-13T01:39:42.153Z,14.35
2017-05-13T01:40:43.444Z,14.31
2017-05-13T01:41:44.728Z,14.25
2017-05-13T01:42:46.242Z,14.35
2017-05-13T01:43:47.475Z,14.31
2017-05-13T01:44:48.730Z,14.32
2017-05-13T01:45:49.975Z,14.34
2017-05-13T01:46:51.294Z,14.29
2017-05-13T01:47:52.562Z,14.29
2017-05-13T01:48:53.836Z,14.32
2017-05-13T01:49:55.072Z,14.21
2017-05-13T01:50:56.321Z,14.27
2017-05-13T01:51:57.589Z,14.17
2017-05-13T01:52:58.855Z,14.25
2017-05-13T01:54:00.185Z,14.27
2017-05-13T01:55:01.470Z,14.21
2017-05-13T01:56:02.738Z,14.21
2017-05-13T01:57:04.000Z,14.14
2017-05-13T01:58:05.275Z,14.17
2017-05-13T01:59:06.533Z,14.16
2017-05-13T02:00:07.783Z,14.16
2017-05-13T02:01:09.097Z,14.14
2017-05-13T02:02:10.364Z,14.2
2017-05-13T02:03:11.637Z,14.12
2017-05-13T02:04:12.862Z,14.12
2017-05-13T02:05:14.261Z,14.12
2017-05-13T02:06:15.526Z,14.16
2017-05-13T02:07:16.787Z,14.14
2017-05-13T02:08:18.046Z,14.17
2017-05-13T02:09:19.343Z,14.13
2017-05-13T02:10:20.576Z,14.19
2017-05-13T02:11:21.871Z,14.12
2017-05-13T02:12:23.142Z,14.13
2017-05-13T02:13:24.394Z,14.07
2017-05-13T02:14:25.642Z,14.1
2017-05-13T02:15:26.909Z,14.06
2017-05-13T02:16:28.172Z,14.09
2017-05-13T02:17:29.486Z,14.01
2017-05-13T02:18:30.723Z,14.07
2017-05-13T02:19:31.972Z,13.98
2017-05-13T02:20:33.246Z,13.92
2017-05-13T02:21:34.495Z,13.94
2017-05-13T02:22:35.754Z,13.92
2017-05-13T02:23:37.127Z,13.92
2017-05-13T02:24:38.389Z,13.98
2017-05-13T02:25:39.704Z,13.98
2017-05-13T02:26:40.945Z,13.91
2017-05-13T02:27:42.177Z,13.95
2017-05-13T02:28:43.468Z,13.91
2017-05-13T02:29:44.735Z,13.89
2017-05-13T02:30:45.974Z,13.89
2017-05-13T02:31:47.263Z,13.92
2017-05-13T02:32:48.552Z,13.94
2017-05-13T02:33:49.795Z,13.91
2017-05-13T02:34:51.053Z,13.89
2017-05-13T02:35:52.314Z,13.84
2017-05-13T02:36:53.657Z,13.88
2017-05-13T02:37:54.882Z,13.8
2017-05-13T02:38:56.167Z,13.84
2017-05-13T02:39:57.584Z,13.83
2017-05-13T02:40:58.846Z,13.76
2017-05-13T02:42:00.164Z,13.79
2017-05-13T02:43:01.441Z,13.62
2017-05-13T02:44:02.796Z,13.69
2017-05-13T02:45:04.037Z,13.63
2017-05-13T02:46:05.331Z,13.65
2017-05-13T02:47:06.593Z,13.56
2017-05-13T02:48:07.875Z,13.55
2017-05-13T02:49:09.139Z,13.62
2017-05-13T02:50:10.416Z,13.49
2017-05-13T02:51:11.757Z,13.54
2017-05-13T02:52:12.997Z,13.49
2017-05-13T02:53:14.277Z,13.49
2017-05-13T02:54:15.560Z,13.56
2017-05-13T02:55:16.813Z,13.47
2017-05-13T02:56:18.068Z,13.37
2017-05-13T02:57:19.411Z,13.46
2017-05-13T02:58:20.705Z,13.47
2017-05-13T02:59:21.955Z,13.44
2017-05-13T03:00:23.278Z,13.49
2017-05-13T03:01:24.546Z,13.47
2017-05-13T03:02:25.818Z,13.46
2017-05-13T03:03:27.064Z,13.4
2017-05-13T03:04:28.316Z,13.38
2017-05-13T03:05:29.631Z,13.46
2017-05-13T03:06:31.021Z,13.44
2017-05-13T03:07:32.235Z,13.38
2017-05-13T03:08:33.479Z,13.4
2017-05-13T03:09:34.722Z,13.32
2017-05-13T03:10:36.139Z,13.37
2017-05-13T03:11:37.420Z,13.37
2017-05-13T03:12:38.629Z,13.29
2017-05-13T03:13:39.925Z,13.3
2017-05-13T03:14:41.213Z,13.37
2017-05-13T03:15:42.476Z,13.32
2017-05-13T03:16:43.777Z,13.41
2017-05-13T03:17:44.996Z,13.41
2017-05-13T03:18:46.377Z,13.43
2017-05-13T03:19:47.735Z,13.33
2017-05-13T03:20:48.949Z,13.38
2017-05-13T03:21:50.204Z,13.43
2017-05-13T03:22:51.510Z,13.47
2017-05-13T03:23:52.720Z,13.55
2017-05-13T03:24:53.981Z,13.54
2017-05-13T03:25:55.241Z,13.55
2017-05-13T03:26:56.520Z,13.56
2017-05-13T03:27:57.771Z,13.62
2017-05-13T03:28:59.055Z,13.63
2017-05-13T03:30:00.406Z,13.69
2017-05-13T03:31:01.669Z,13.65
2017-05-13T03:32:02.932Z,13.71
2017-05-13T03:33:04.199Z,13.63
2017-05-13T03:34:05.539Z,13.69
2017-05-13T03:35:06.879Z,13.61
2017-05-13T03:36:08.193Z,13.7
2017-05-13T03:37:09.545Z,13.61
2017-05-13T03:38:10.794Z,13.61
2017-05-13T03:39:12.055Z,13.67
2017-05-13T03:40:13.322Z,13.69
2017-05-13T03:41:14.616Z,13.63
2017-05-13T03:42:15.920Z,13.62
2017-05-13T03:43:17.176Z,13.67
2017-05-13T03:44:18.429Z,13.71
2017-05-13T03:45:19.696Z,13.65
2017-05-13T03:46:21.050Z,13.59
2017-05-13T03:47:22.348Z,13.63
2017-05-13T03:48:23.649Z,13.7
2017-05-13T03:49:24.929Z,13.76
2017-05-13T03:50:26.179Z,13.61
2017-05-13T03:51:27.487Z,13.67
2017-05-13T03:52:28.741Z,13.69
2017-05-13T03:53:30.040Z,13.63
2017-05-13T03:54:31.281Z,13.7
2017-05-13T03:55:32.536Z,13.62
2017-05-13T03:56:33.790Z,13.63
2017-05-13T03:57:35.061Z,13.67
2017-05-13T03:58:36.358Z,13.74
2017-05-13T03:59:37.641Z,13.69
2017-05-13T04:00:38.893Z,13.67
2017-05-13T04:01:40.162Z,13.69
2017-05-13T04:02:41.450Z,13.77
2017-05-13T04:03:42.710Z,13.76
2017-05-13T04:04:44.082Z,13.67
2017-05-13T04:05:45.398Z,13.73
2017-05-13T04:06:46.643Z,13.62
2017-05-13T04:07:47.910Z,13.76
2017-05-13T04:08:49.141Z,13.61
2017-05-13T04:09:50.388Z,13.76
2017-05-13T04:10:51.776Z,13.7
2017-05-13T04:11:53.060Z,13.65
2017-05-13T04:12:54.283Z,13.73
2017-05-13T04:13:55.812Z,13.7
2017-05-13T04:14:57.111Z,13.67
2017-05-13T04:15:58.410Z,13.73
2017-05-13T04:16:59.736Z,13.61
2017-05-13T04:18:01.006Z,13.76
2017-05-13T04:19:02.264Z,13.67
2017-05-13T04:20:03.534Z,13.63
2017-05-13T04:21:04.822Z,13.71
2017-05-13T04:22:06.058Z,13.76
2017-05-13T04:23:07.343Z,13.76
2017-05-13T04:24:08.581Z,13.87
2017-05-13T04:25:09.814Z,13.98
2017-05-13T04:26:11.075Z,13.98
2017-05-13T04:27:12.336Z,14.06
2017-05-13T04:28:13.599Z,14.1
2017-05-13T04:29:14.858Z,14.21
2017-05-13T04:30:16.120Z,14.29
2017-05-13T04:31:17.392Z,14.34
2017-05-13T04:32:18.637Z,14.42
2017-05-13T04:33:19.894Z,14.44
2017-05-13T04:34:21.263Z,14.54
2017-05-13T04:35:22.502Z,14.54
2017-05-13T04:36:23.788Z,14.6
2017-05-13T04:37:25.007Z,14.56
2017-05-13T04:38:26.275Z,14.65
2017-05-13T04:39:27.572Z,14.62
2017-05-13T04:40:28.922Z,14.62
2017-05-13T04:41:30.194Z,14.67
2017-05-13T04:42:31.433Z,14.78
2017-05-13T04:43:32.697Z,14.81
2017-05-13T04:44:34.040Z,14.8
2017-05-13T04:45:35.320Z,14.86
2017-05-13T04:46:36.625Z,14.83
2017-05-13T04:47:38.050Z,14.83
2017-05-13T04:48:39.270Z,14.88
2017-05-13T04:49:40.514Z,14.88
2017-05-13T04:50:41.815Z,14.88
2017-05-13T04:51:43.088Z,14.93
2017-05-13T04:52:44.407Z,14.93
2017-05-13T04:53:45.654Z,14.95
2017-05-13T04:54:46.944Z,15.01
2017-05-13T04:55:48.158Z,14.98
2017-05-13T04:56:49.442Z,15.08
2017-05-13T04:57:50.722Z,15.05
2017-05-13T04:58:52.037Z,15.06
2017-05-13T04:59:53.267Z,15.19
2017-05-13T05:00:54.519Z,15.11
2017-05-13T05:01:55.868Z,15.15
2017-05-13T05:02:57.137Z,15.28
2017-05-13T05:03:58.565Z,15.28
2017-05-13T05:04:59.871Z,15.41
2017-05-13T05:06:01.136Z,15.42
2017-05-13T05:07:02.376Z,15.49
2017-05-13T05:08:03.655Z,15.61
2017-05-13T05:09:04.904Z,15.61
2017-05-13T05:10:06.170Z,15.78
2017-05-13T05:11:07.465Z,15.76
2017-05-13T05:12:08.689Z,15.74
2017-05-13T05:13:09.979Z,15.82
2017-05-13T05:14:11.293Z,15.86
2017-05-13T05:15:12.606Z,15.92
2017-05-13T05:16:13.933Z,15.84
2017-05-13T05:17:15.300Z,15.82
2017-05-13T05:18:16.514Z,15.84
2017-05-13T05:19:17.789Z,15.79
2017-05-13T05:20:19.043Z,15.72
2017-05-13T05:21:20.319Z,15.7
2017-05-13T05:22:21.621Z,15.66
2017-05-13T05:23:22.905Z,15.68
2017-05-13T05:24:24.139Z,15.63
2017-05-13T05:25:25.492Z,15.67
2017-05-13T05:26:26.760Z,15.66
2017-05-13T05:27:28.030Z,15.67
2017-05-13T05:28:29.321Z,15.75
2017-05-13T05:29:30.640Z,15.66
2017-05-13T05:30:31.889Z,15.72
2017-05-13T05:31:33.158Z,15.74
2017-05-13T05:32:34.418Z,15.76
2017-05-13T05:33:35.745Z,15.75
2017-05-13T05:34:37.087Z,15.85
2017-05-13T05:35:38.377Z,15.82
2017-05-13T05:36:39.673Z,15.82
2017-05-13T05:37:40.958Z,15.79
2017-05-13T05:38:42.247Z,15.84
2017-05-13T05:39:43.496Z,15.81
2017-05-13T05:40:44.769Z,15.85
2017-05-13T05:41:46.019Z,15.93
2017-05-13T05:42:47.271Z,15.94
2017-05-13T05:43:48.519Z,15.94
2017-05-13T05:44:49.792Z,16
2017-05-13T05:45:51.097Z,15.97
2017-05-13T05:46:52.488Z,16
2017-05-13T05:47:53.759Z,16.04
2017-05-13T05:48:55.032Z,16.03
2017-05-13T05:49:56.288Z,16.04
2017-05-13T05:50:57.618Z,16.11
2017-05-13T05:51:58.839Z,16.16
2017-05-13T05:53:00.104Z,16.23
2017-05-13T05:54:01.388Z,16.23
2017-05-13T05:55:02.620Z,16.23
2017-05-13T05:56:03.943Z,16.27
2017-05-13T05:57:05.204Z,16.34
2017-05-13T05:58:06.489Z,16.4
2017-05-13T05:59:07.729Z,16.41
2017-05-13T06:00:08.995Z,16.45
2017-05-13T06:01:10.235Z,16.49
2017-05-13T06:02:11.535Z,16.45
2017-05-13T06:03:12.779Z,16.5
2017-05-13T06:04:14.057Z,16.56
2017-05-13T06:05:15.331Z,16.58
2017-05-13T06:06:16.595Z,16.56
2017-05-13T06:07:17.860Z,16.55
2017-05-13T06:08:19.172Z,16.58
2017-05-13T06:09:20.436Z,16.55
2017-05-13T06:10:21.773Z,16.58
2017-05-13T06:11:23.056Z,16.49
2017-05-13T06:12:24.330Z,16.62
2017-05-13T06:13:25.588Z,16.75
2017-05-13T06:14:26.839Z,16.67
2017-05-13T06:15:28.127Z,16.81
2017-05-13T06:16:29.425Z,16.86
2017-05-13T06:17:30.704Z,16.9
2017-05-13T06:18:31.959Z,17.03
2017-05-13T06:19:33.229Z,17.11
2017-05-13T06:20:34.504Z,17.17
2017-05-13T06:21:35.739Z,17.04
2017-05-13T06:22:37.092Z,17.07
2017-05-13T06:23:38.352Z,17.22
2017-05-13T06:24:39.613Z,17.29
2017-05-13T06:25:40.881Z,17.32
2017-05-13T06:26:42.197Z,17.33
2017-05-13T06:27:43.495Z,17.35
2017-05-13T06:28:44.708Z,17.47
2017-05-13T06:29:46.047Z,17.5
2017-05-13T06:30:47.298Z,17.54
2017-05-13T06:31:48.557Z,17.51
2017-05-13T06:32:49.887Z,17.55
2017-05-13T06:33:51.161Z,17.47
2017-05-13T06:34:52.448Z,17.57
2017-05-13T06:35:53.789Z,17.55
2017-05-13T06:36:55.044Z,17.51
2017-05-13T06:37:56.327Z,17.62
2017-05-13T06:38:57.638Z,17.57
2017-05-13T06:39:58.896Z,17.69
2017-05-13T06:41:00.154Z,17.64
2017-05-13T06:42:01.406Z,17.76
2017-05-13T06:43:02.658Z,17.76
2017-05-13T06:44:03.903Z,17.88
2017-05-13T06:45:05.189Z,17.97
2017-05-13T06:46:06.515Z,17.85
2017-05-13T06:47:07.754Z,17.85
2017-05-13T06:48:09.029Z,17.94
2017-05-13T06:49:10.288Z,17.94
2017-05-13T06:50:11.648Z,17.99
2017-05-13T06:51:12.938Z,18
2017-05-13T06:52:14.202Z,18.1
2017-05-13T06:53:15.542Z,18.06
2017-05-13T06:54:16.803Z,18.06
2017-05-13T06:55:18.096Z,18.13
2017-05-13T06:56:19.345Z,18.09
2017-05-13T06:57:20.637Z,18.13
2017-05-13T06:58:21.897Z,18.22
2017-05-13T06:59:23.142Z,18.22
2017-05-13T07:00:24.376Z,18.27
2017-05-13T07:01:25.701Z,18.36
2017-05-13T07:02:26.979Z,18.34
2017-05-13T07:03:28.243Z,18.4
2017-05-13T07:04:29.572Z,18.37
2017-05-13T07:05:30.818Z,18.25
2017-05-13T07:06:32.070Z,18.21
2017-05-13T07:07:33.332Z,18.19
2017-05-13T07:08:34.606Z,18.22
2017-05-13T07:09:35.850Z,18.31
2017-05-13T07:10:37.252Z,18.31
2017-05-13T07:11:38.485Z,18.22
2017-05-13T07:12:39.743Z,18.13
2017-05-13T07:13:41.003Z,18.15
2017-05-13T07:14:42.306Z,18.17
2017-05-13T07:15:43.630Z,18.17
2017-05-13T07:16:44.926Z,18.24
2017-05-13T07:17:46.206Z,18.25
2017-05-13T07:18:47.509Z,18.44
2017-05-13T07:19:48.746Z,18.44
2017-05-13T07:20:50.036Z,18.54
2017-05-13T07:21:51.453Z,18.7
2017-05-13T07:22:52.732Z,18.68
2017-05-13T07:23:54.156Z,18.79
2017-05-13T07:24:55.429Z,18.76
2017-05-13T07:25:56.677Z,18.86
2017-05-13T07:26:58.122Z,18.99
2017-05-13T07:27:59.377Z,19.1
2017-05-13T07:29:00.600Z,19.14
2017-05-13T07:30:01.873Z,19.28
2017-05-13T07:31:03.094Z,19.33
2017-05-13T07:32:04.385Z,19.38
2017-05-13T07:33:05.674Z,19.51
2017-05-13T07:34:07.100Z,19.48
2017-05-13T07:35:08.282Z,19.46
2017-05-13T07:36:09.655Z,19.46
2017-05-13T07:37:10.897Z,19.39
2017-05-13T07:38:12.159Z,19.36
2017-05-13T07:39:13.555Z,19.25
2017-05-13T07:40:14.826Z,19.31
2017-05-13T07:41:16.092Z,19.32
2017-05-13T07:42:17.435Z,19.33
2017-05-13T07:43:18.717Z,19.28
2017-05-13T07:44:20.068Z,19.15
2017-05-13T07:45:21.311Z,19.15
2017-05-13T07:46:22.603Z,19.17
2017-05-13T07:47:23.887Z,19.15
2017-05-13T07:48:25.229Z,19.14
2017-05-13T07:49:26.513Z,19.13
2017-05-13T07:50:27.773Z,19.17
2017-05-13T07:51:29.089Z,19.25
2017-05-13T07:52:30.336Z,19.25
2017-05-13T07:53:31.607Z,19.36
2017-05-13T07:54:32.874Z,19.36
2017-05-13T07:55:34.223Z,19.21
2017-05-13T07:56:35.495Z,19.06
2017-05-13T07:57:36.905Z,18.98
2017-05-13T07:58:38.152Z,19.1
2017-05-13T07:59:39.411Z,19.01
2017-05-13T08:00:40.684Z,18.97
2017-05-13T08:01:41.935Z,18.9
2017-05-13T08:02:43.246Z,18.91
2017-05-13T08:03:44.491Z,18.91
2017-05-13T08:04:45.852Z,19.13
2017-05-13T08:05:47.240Z,19.05
2017-05-13T08:06:48.456Z,19.13
2017-05-13T08:07:49.703Z,19.23
2017-05-13T08:08:50.970Z,19.31
2017-05-13T08:09:52.198Z,19.46
2017-05-13T08:10:53.478Z,19.54
2017-05-13T08:11:54.737Z,19.73
2017-05-13T08:12:55.985Z,19.86
2017-05-13T08:13:57.378Z,20.02
2017-05-13T08:14:58.638Z,20.05
2017-05-13T08:15:59.941Z,20.12
2017-05-13T08:17:01.204Z,20.1
2017-05-13T08:18:02.483Z,20.12
2017-05-13T08:19:03.760Z,20.15
2017-05-13T08:20:05.115Z,20.18
2017-05-13T08:21:06.283Z,20.2
2017-05-13T08:22:07.532Z,20.16
2017-05-13T08:23:08.807Z,20.08
2017-05-13T08:24:10.102Z,20.1
2017-05-13T08:25:11.395Z,20.18
2017-05-13T08:26:12.685Z,20.24
2017-05-13T08:27:13.999Z,20.23
2017-05-13T08:28:15.321Z,20.27
2017-05-13T08:29:16.587Z,20.27
2017-05-13T08:30:17.899Z,20.24
2017-05-13T08:31:19.144Z,20.21
2017-05-13T08:32:20.444Z,20.28
2017-05-13T08:33:21.788Z,20.27
2017-05-13T08:34:23.032Z,20.2
2017-05-13T08:35:24.287Z,20.12
2017-05-13T08:36:25.580Z,20.03
2017-05-13T08:37:26.783Z,19.98
2017-05-13T08:38:28.057Z,20.03
2017-05-13T08:39:29.307Z,20.06
2017-05-13T08:40:30.554Z,20.12
2017-05-13T08:41:31.824Z,20.12
2017-05-13T08:42:33.086Z,20.39
2017-05-13T08:43:34.377Z,20.53
2017-05-13T08:44:35.681Z,20.56
2017-05-13T08:45:36.989Z,20.59
2017-05-13T08:46:38.262Z,20.86
2017-05-13T08:47:39.537Z,21.09
2017-05-13T08:48:40.792Z,21.3
2017-05-13T08:49:42.083Z,21.64
2017-05-13T08:50:43.352Z,21.97
2017-05-13T08:51:44.678Z,22.2
2017-05-13T08:52:46.029Z,22.39
2017-05-13T08:53:47.327Z,22.53
2017-05-13T08:54:48.693Z,22.67
2017-05-13T08:55:49.937Z,22.8
2017-05-13T08:56:51.231Z,22.92
2017-05-13T08:57:52.498Z,23.05
2017-05-13T08:58:53.818Z,23.14
2017-05-13T08:59:55.225Z,23.38
2017-05-13T09:00:56.475Z,23.49
2017-05-13T09:01:57.802Z,23.49
2017-05-13T09:02:59.056Z,23.55
2017-05-13T09:04:00.309Z,23.6
2017-05-13T09:05:01.700Z,23.6
2017-05-13T09:06:03.001Z,23.61
2017-05-13T09:07:04.400Z,23.45
2017-05-13T09:08:05.703Z,23.49
2017-05-13T09:09:06.948Z,23.15
2017-05-13T09:10:08.244Z,23.09
2017-05-13T09:11:09.621Z,23.14
2017-05-13T09:12:10.907Z,23.19
2017-05-13T09:13:12.203Z,23.46
2017-05-13T09:14:13.466Z,23.53
2017-05-13T09:15:14.723Z,23.68
2017-05-13T09:16:16.121Z,23.82
2017-05-13T09:17:17.399Z,23.89
2017-05-13T09:18:18.681Z,24.08
2017-05-13T09:19:19.961Z,24.34
2017-05-13T09:20:21.244Z,24.73
2017-05-13T09:21:22.516Z,24.94
2017-05-13T09:22:23.755Z,25.12
2017-05-13T09:23:25.024Z,25.32
2017-05-13T09:24:26.370Z,25.57
2017-05-13T09:25:27.621Z,26.05
2017-05-13T09:26:28.900Z,26.67
2017-05-13T09:27:30.170Z,26.94
2017-05-13T09:28:31.452Z,27.46
2017-05-13T09:29:32.717Z,27.96
2017-05-13T09:30:34.100Z,28.4
2017-05-13T09:31:35.455Z,28.62
2017-05-13T09:32:36.771Z,28.51
2017-05-13T09:33:38.027Z,28.75
2017-05-13T09:34:39.453Z,29.07
2017-05-13T09:35:40.613Z,29.5
2017-05-13T09:36:41.952Z,30.02
2017-05-13T09:37:43.223Z,29.89
2017-05-13T09:38:44.536Z,29.78
2017-05-13T09:39:45.798Z,30.31
2017-05-13T09:40:47.251Z,30.84
2017-05-13T09:41:48.468Z,31.48
2017-05-13T09:42:49.879Z,32.06
2017-05-13T09:43:51.174Z,32.49
2017-05-13T09:44:52.471Z,32.79
2017-05-13T09:45:53.727Z,32.71
2017-05-13T09:46:55.006Z,32.67
2017-05-13T09:47:56.263Z,32.49
2017-05-13T09:48:57.550Z,31.72
2017-05-13T09:49:58.839Z,31.08
2017-05-13T09:51:00.232Z,30.69
2017-05-13T09:52:01.668Z,30.45
2017-05-13T09:53:02.946Z,30.19
2017-05-13T09:54:04.291Z,29.94
2017-05-13T09:55:05.737Z,29.47
2017-05-13T09:56:06.953Z,29.06
2017-05-13T09:57:08.261Z,28.73
2017-05-13T09:58:09.530Z,28.62
2017-05-13T09:59:10.797Z,28.88
2017-05-13T10:00:12.122Z,29.28
2017-05-13T10:01:13.430Z,29.82
2017-05-13T10:02:14.670Z,29.97
2017-05-13T10:03:16.014Z,30.26
2017-05-13T10:04:17.298Z,30.68
2017-05-13T10:05:18.607Z,31.11
2017-05-13T10:06:19.891Z,31.64
2017-05-13T10:07:21.197Z,31.72
2017-05-13T10:08:22.480Z,31.45
2017-05-13T10:09:23.811Z,31.05
2017-05-13T10:10:25.079Z,30.65
2017-05-13T10:11:26.441Z,30
2017-05-13T10:12:27.799Z,29.47
2017-05-13T10:13:29.021Z,29.01
2017-05-13T10:14:30.274Z,28.4
2017-05-13T10:15:31.580Z,28.04
2017-05-13T10:16:32.856Z,27.36
2017-05-13T10:17:34.232Z,27.1
2017-05-13T10:18:35.494Z,26.59
2017-05-13T10:19:36.786Z,26.01
2017-05-13T10:20:38.179Z,25.91
2017-05-13T10:21:39.435Z,25.74
2017-05-13T10:22:40.721Z,25.67
2017-05-13T10:23:41.969Z,25.54
2017-05-13T10:24:43.397Z,25.42
2017-05-13T10:25:44.603Z,25.34
2017-05-13T10:26:45.933Z,25.35
2017-05-13T10:27:47.198Z,25.38
2017-05-13T10:28:48.541Z,25.49
2017-05-13T10:29:49.830Z,25.83
2017-05-13T10:30:51.074Z,26.36
2017-05-13T10:31:52.329Z,27.28
2017-05-13T10:32:53.598Z,28.06
2017-05-13T10:33:54.883Z,28.87
2017-05-13T10:34:56.110Z,29.34
2017-05-13T10:35:57.377Z,29.34
2017-05-13T10:36:58.644Z,29.78
2017-05-13T10:38:00.069Z,29.75
2017-05-13T10:39:01.328Z,30.24
2017-05-13T10:40:02.594Z,30.5
2017-05-13T10:41:03.891Z,30.52
2017-05-13T10:42:05.174Z,30.4
2017-05-13T10:43:06.507Z,30.08
2017-05-13T10:44:07.782Z,29.29
2017-05-13T10:45:09.038Z,28.9
2017-05-13T10:46:10.316Z,28.51
2017-05-13T10:47:11.877Z,28.04
2017-05-13T10:48:13.164Z,27.48
2017-05-13T10:49:14.453Z,26.92
2017-05-13T10:50:15.758Z,26.27
2017-05-13T10:51:17.011Z,25.71
2017-05-13T10:52:18.355Z,25.19
2017-05-13T10:53:19.613Z,24.87
2017-05-13T10:54:20.922Z,24.52
2017-05-13T10:55:22.208Z,24.42
2017-05-13T10:56:23.456Z,24.24
2017-05-13T10:57:24.695Z,24.26
2017-05-13T10:58:26.006Z,24.35
2017-05-13T10:59:27.375Z,24.37
2017-05-13T11:00:28.602Z,24.44
2017-05-13T11:01:29.909Z,24.32
2017-05-13T11:02:31.159Z,24.39
2017-05-13T11:03:32.432Z,24.44
2017-05-13T11:04:33.765Z,24.39
2017-05-13T11:05:35.148Z,24.35
2017-05-13T11:06:36.356Z,24.29
2017-05-13T11:07:37.639Z,24.2
2017-05-13T11:08:38.910Z,24.24
2017-05-13T11:09:40.285Z,24.23
2017-05-13T11:10:41.577Z,24.37
2017-05-13T11:11:42.850Z,24.23
2017-05-13T11:12:44.118Z,24.23
2017-05-13T11:13:45.383Z,24.2
2017-05-13T11:14:46.656Z,24.24
2017-05-13T11:15:47.888Z,24.32
2017-05-13T11:16:49.170Z,24.42
2017-05-13T11:17:50.424Z,24.38
2017-05-13T11:18:51.671Z,24.35
2017-05-13T11:19:52.917Z,24.41
2017-05-13T11:20:54.174Z,24.41
2017-05-13T11:21:55.425Z,24.54
2017-05-13T11:22:56.684Z,24.69
2017-05-13T11:23:58.055Z,24.76
2017-05-13T11:24:59.312Z,25.01
2017-05-13T11:26:00.565Z,25.15
2017-05-13T11:27:01.804Z,25.22
2017-05-13T11:28:03.057Z,25
2017-05-13T11:29:04.559Z,24.79
2017-05-13T11:30:05.799Z,24.73
2017-05-13T11:31:07.077Z,24.69
2017-05-13T11:32:08.335Z,24.61
2017-05-13T11:33:09.607Z,24.63
2017-05-13T11:34:10.874Z,24.83
2017-05-13T11:35:12.133Z,24.83
2017-05-13T11:36:13.408Z,24.9
2017-05-13T11:37:14.676Z,25
2017-05-13T11:38:16.066Z,24.94
2017-05-13T11:39:17.455Z,24.92
2017-05-13T11:40:18.726Z,24.87
2017-05-13T11:41:19.963Z,24.9
2017-05-13T11:42:21.217Z,24.79
2017-05-13T11:43:22.473Z,24.47
2017-05-13T11:44:23.728Z,24.1
2017-05-13T11:45:24.985Z,24.1
2017-05-13T11:46:26.318Z,24.1
2017-05-13T11:47:27.581Z,24.02
2017-05-13T11:48:28.843Z,23.95
2017-05-13T11:49:30.137Z,23.86
2017-05-13T11:50:31.412Z,23.85
2017-05-13T11:51:32.686Z,23.89
2017-05-13T11:52:34.058Z,23.92
2017-05-13T11:53:35.305Z,23.87
2017-05-13T11:54:36.562Z,24.14
2017-05-13T11:55:37.814Z,24.34
2017-05-13T11:56:39.081Z,24.22
2017-05-13T11:57:40.422Z,24.27
2017-05-13T11:58:41.743Z,24.22
2017-05-13T11:59:43.022Z,24.16
2017-05-13T12:00:44.287Z,24.1
2017-05-13T12:01:45.613Z,24.16
2017-05-13T12:02:46.887Z,24.14
2017-05-13T12:03:48.220Z,24.1
2017-05-13T12:04:49.463Z,24.1
2017-05-13T12:05:50.725Z,24.07
2017-05-13T12:06:51.974Z,24.1
2017-05-13T12:07:53.260Z,24.07
2017-05-13T12:08:54.541Z,24.26
2017-05-13T12:09:55.824Z,24.37
2017-05-13T12:10:57.185Z,24.34
2017-05-13T12:11:58.470Z,24.24
2017-05-13T12:12:59.756Z,24.39
2017-05-13T12:14:01.050Z,24.47
2017-05-13T12:15:02.387Z,24.47
2017-05-13T12:16:03.794Z,24.53
2017-05-13T12:17:05.065Z,24.69
2017-05-13T12:18:06.331Z,24.73
2017-05-13T12:19:07.600Z,24.69
2017-05-13T12:20:08.915Z,24.59
2017-05-13T12:21:10.165Z,24.73
2017-05-13T12:22:11.416Z,24.8
2017-05-13T12:23:12.681Z,25.01
2017-05-13T12:24:13.986Z,25.05
2017-05-13T12:25:15.258Z,25.16
2017-05-13T12:26:16.815Z,25.24
2017-05-13T12:27:18.067Z,25.39
2017-05-13T12:28:19.317Z,25.47
2017-05-13T12:29:20.605Z,25.64
2017-05-13T12:30:21.870Z,25.59
2017-05-13T12:31:23.171Z,25.56
2017-05-13T12:32:24.519Z,25.64
2017-05-13T12:33:25.707Z,25.82
2017-05-13T12:34:26.950Z,25.53
2017-05-13T12:35:28.241Z,25.52
2017-05-13T12:36:29.625Z,25.5
2017-05-13T12:37:30.881Z,25.35
2017-05-13T12:38:32.127Z,25.42
2017-05-13T12:39:33.387Z,25.5
2017-05-13T12:40:34.642Z,25.44
2017-05-13T12:41:35.923Z,25.5
2017-05-13T12:42:37.232Z,25.27
2017-05-13T12:43:38.514Z,25.17
2017-05-13T12:44:39.815Z,25.16
2017-05-13T12:45:41.073Z,25.07
2017-05-13T12:46:42.361Z,25.1
2017-05-13T12:47:43.776Z,25.02
2017-05-13T12:48:45.040Z,25.1
2017-05-13T12:49:46.322Z,25.12
2017-05-13T12:50:47.609Z,25.01
2017-05-13T12:51:48.893Z,24.98
2017-05-13T12:52:50.187Z,24.98
2017-05-13T12:53:51.408Z,24.97
2017-05-13T12:54:52.687Z,25.06
2017-05-13T12:55:53.952Z,24.98
2017-05-13T12:56:55.237Z,25
2017-05-13T12:57:56.520Z,25.06
2017-05-13T12:58:57.780Z,25
2017-05-13T12:59:59.050Z,25
2017-05-13T13:01:00.355Z,25.02
2017-05-13T13:02:01.814Z,25.07
2017-05-13T13:03:03.147Z,24.95
2017-05-13T13:04:04.339Z,25.06
2017-05-13T13:05:05.620Z,25.1
2017-05-13T13:06:06.841Z,25.13
2017-05-13T13:07:08.218Z,25.09
2017-05-13T13:08:09.494Z,24.98
2017-05-13T13:09:10.797Z,25.02
2017-05-13T13:10:12.130Z,24.87
2017-05-13T13:11:13.365Z,24.82
2017-05-13T13:12:14.624Z,24.71